createdAt,value
2019-04-30T00:02:06.629Z,9.00
2019-04-30T00:07:15.506Z,9.00
2019-04-30T00:12:18.507Z,8.90
2019-04-30T00:17:23.344Z,8.70
2019-04-30T00:22:33.766Z,8.60
2019-04-30T00:27:35.634Z,8.60
2019-04-30T00:32:43.823Z,8.60
2019-04-30T00:37:52.005Z,8.50
2019-04-30T00:42:55.993Z,8.50
2019-04-30T00:48:01.916Z,8.50
2019-04-30T00:53:12.563Z,8.50
2019-04-30T00:58:17.675Z,8.30
2019-04-30T01:03:30.546Z,8.40
2019-04-30T01:08:35.848Z,8.30
2019-04-30T01:13:45.618Z,8.20
2019-04-30T01:18:49.156Z,8.20
2019-04-30T01:23:54.869Z,8.10
2019-04-30T01:29:02.077Z,7.90
2019-04-30T01:34:10.379Z,7.90
2019-04-30T01:39:13.418Z,7.80
2019-04-30T01:44:19.517Z,7.80
2019-04-30T01:49:26.658Z,7.70
2019-04-30T01:54:31.097Z,7.60
2019-04-30T01:59:48.574Z,7.60
2019-04-30T02:04:52.842Z,7.60
2019-04-30T02:09:58.759Z,7.50
2019-04-30T02:15:03.952Z,7.50
2019-04-30T02:20:08.955Z,7.50
2019-04-30T02:25:13.877Z,7.40
2019-04-30T02:30:20.843Z,7.40
2019-04-30T02:35:29.769Z,7.30
2019-04-30T02:40:39.332Z,7.30
2019-04-30T02:45:49.609Z,7.30
2019-04-30T02:50:55.734Z,7.20
2019-04-30T02:56:02.588Z,7.30
2019-04-30T03:01:07.081Z,7.30
2019-04-30T03:06:11.933Z,7.30
2019-04-30T03:11:16.787Z,7.20
2019-04-30T03:16:25.978Z,7.20
2019-04-30T03:21:50.269Z,7.20
2019-04-30T03:26:54.919Z,7.10
2019-04-30T03:32:02.632Z,7.10
2019-04-30T03:37:06.196Z,7.10
2019-04-30T03:42:11.818Z,7.00
2019-04-30T03:47:16.576Z,7.10
2019-04-30T03:52:21.367Z,7.10
2019-04-30T03:57:26.163Z,7.10
2019-04-30T04:02:32.990Z,7.10
2019-04-30T04:07:42.236Z,7.20
2019-04-30T04:12:49.614Z,7.20
2019-04-30T04:17:53.661Z,7.30
2019-04-30T04:22:59.834Z,7.40
2019-04-30T04:28:04.992Z,7.40
2019-04-30T04:33:10.227Z,7.50
2019-04-30T04:38:15.375Z,7.60
2019-04-30T04:43:20.571Z,7.70
2019-04-30T04:48:25.420Z,7.80
2019-04-30T04:53:30.612Z,7.90
2019-04-30T04:58:36.150Z,8.00
2019-04-30T05:03:41.069Z,8.30
2019-04-30T05:08:45.920Z,8.50
2019-04-30T05:13:50.705Z,8.60
2019-04-30T05:18:55.553Z,8.70
2019-04-30T05:24:00.397Z,8.80
2019-04-30T05:29:05.241Z,8.90
2019-04-30T05:34:10.274Z,9.10
2019-04-30T05:39:15.302Z,9.20
2019-04-30T05:44:20.697Z,9.40
2019-04-30T05:49:25.472Z,9.50
2019-04-30T05:54:30.327Z,9.60
2019-04-30T05:59:35.194Z,9.70
2019-04-30T06:04:40.041Z,10.00
2019-04-30T06:09:48.459Z,10.20
2019-04-30T06:14:58.996Z,10.40
2019-04-30T06:20:16.171Z,10.60
2019-04-30T06:25:13.186Z,10.80
2019-04-30T06:30:19.802Z,11.20
2019-04-30T06:35:25.383Z,11.50
2019-04-30T06:40:30.251Z,11.80
2019-04-30T06:45:38.773Z,12.10
2019-04-30T06:50:43.844Z,12.20
2019-04-30T06:55:49.226Z,12.40
2019-04-30T07:00:54.331Z,12.70
2019-04-30T07:05:59.336Z,12.60
2019-04-30T07:11:24.349Z,12.80
2019-04-30T07:16:29.838Z,13.20
2019-04-30T07:21:36.595Z,13.50
2019-04-30T07:26:41.538Z,13.70
2019-04-30T07:31:46.460Z,14.00
2019-04-30T07:37:10.400Z,14.30
2019-04-30T07:41:59.951Z,14.40
2019-04-30T07:47:04.435Z,14.60
2019-04-30T07:52:11.491Z,14.60
2019-04-30T07:57:15.655Z,15.10
2019-04-30T08:02:20.929Z,15.40
2019-04-30T08:07:26.007Z,15.50
2019-04-30T08:12:35.730Z,15.90
2019-04-30T08:17:38.903Z,16.00
2019-04-30T08:22:43.882Z,16.20
2019-04-30T08:27:49.873Z,16.20
2019-04-30T08:32:54.746Z,16.50
2019-04-30T08:37:59.610Z,16.90
2019-04-30T08:43:05.038Z,17.00
2019-04-30T08:48:09.891Z,17.00
2019-04-30T08:53:27.577Z,17.40
2019-04-30T08:58:23.860Z,17.80
2019-04-30T09:03:29.631Z,17.80
2019-04-30T09:08:36.812Z,17.90
2019-04-30T09:13:41.860Z,17.80
2019-04-30T09:18:46.917Z,17.80
2019-04-30T09:23:52.807Z,18.00
2019-04-30T09:28:59.275Z,18.50
2019-04-30T09:34:14.342Z,19.00
2019-04-30T09:39:11.262Z,19.00
2019-04-30T09:44:16.228Z,19.20
2019-04-30T09:49:21.158Z,19.20
2019-04-30T09:54:26.014Z,19.30
2019-04-30T09:59:31.578Z,19.40
2019-04-30T10:04:36.659Z,19.20
2019-04-30T10:09:41.977Z,19.50
2019-04-30T10:14:46.832Z,20.00
2019-04-30T10:19:51.692Z,19.90
2019-04-30T10:24:56.542Z,20.20
2019-04-30T10:30:01.392Z,20.50
2019-04-30T10:35:07.345Z,20.90
2019-04-30T10:40:12.329Z,20.70
2019-04-30T10:45:18.610Z,20.70
2019-04-30T10:50:24.669Z,20.60
2019-04-30T10:55:31.114Z,20.50
2019-04-30T11:00:49.717Z,21.10
2019-04-30T11:05:55.321Z,21.00
2019-04-30T11:11:00.257Z,21.00
2019-04-30T11:16:12.622Z,21.20
2019-04-30T11:21:13.178Z,21.80
2019-04-30T11:26:18.627Z,22.20
2019-04-30T11:31:25.979Z,21.80
2019-04-30T11:36:31.074Z,21.80
2019-04-30T11:41:35.933Z,21.10
2019-04-30T11:47:09.364Z,20.90
2019-04-30T11:52:14.278Z,20.90
2019-04-30T11:57:19.203Z,21.10
2019-04-30T12:02:25.720Z,21.30
2019-04-30T12:07:34.912Z,21.40
2019-04-30T12:12:39.736Z,21.30
2019-04-30T12:17:44.587Z,21.50
2019-04-30T12:22:50.005Z,21.60
2019-04-30T12:27:54.775Z,21.80
2019-04-30T12:32:59.604Z,21.80
2019-04-30T12:38:04.442Z,21.80
2019-04-30T12:43:10.016Z,21.80
2019-04-30T12:48:18.611Z,21.80
2019-04-30T12:53:27.585Z,21.90
2019-04-30T12:58:32.489Z,21.80
2019-04-30T13:03:37.324Z,21.60
2019-04-30T13:08:42.606Z,21.80
2019-04-30T13:13:49.970Z,21.50
2019-04-30T13:18:54.261Z,21.30
2019-04-30T13:23:59.087Z,21.50
2019-04-30T13:29:11.899Z,21.60
2019-04-30T13:34:34.545Z,21.60
2019-04-30T13:39:53.030Z,21.80
2019-04-30T13:44:56.504Z,21.40
2019-04-30T13:50:01.350Z,21.30
2019-04-30T13:55:10.736Z,21.00
2019-04-30T14:00:18.781Z,21.00
2019-04-30T14:05:23.681Z,21.20
2019-04-30T14:10:30.248Z,21.60
2019-04-30T14:15:35.753Z,21.90
2019-04-30T14:20:40.576Z,21.90
2019-04-30T14:25:55.917Z,21.10
2019-04-30T14:30:51.859Z,20.90
2019-04-30T14:35:56.681Z,21.00
2019-04-30T14:41:02.194Z,20.80
2019-04-30T14:46:25.670Z,21.00
2019-04-30T14:51:31.001Z,21.20
2019-04-30T14:56:52.747Z,21.20
2019-04-30T15:02:01.948Z,21.20
2019-04-30T15:07:06.791Z,20.70
2019-04-30T15:12:11.608Z,20.70
2019-04-30T15:17:16.447Z,20.90
2019-04-30T15:22:21.280Z,20.70
2019-04-30T15:27:26.105Z,20.80
2019-04-30T15:32:31.019Z,20.70
2019-04-30T15:37:38.565Z,20.80
2019-04-30T15:42:45.297Z,20.70
2019-04-30T15:47:50.150Z,20.60
2019-04-30T15:52:54.983Z,20.50
2019-04-30T15:58:10.566Z,20.50
2019-04-30T16:03:19.743Z,20.40
2019-04-30T16:08:29.259Z,20.30
2019-04-30T16:13:51.962Z,20.10
2019-04-30T16:18:58.686Z,19.90
2019-04-30T16:24:03.522Z,19.70
2019-04-30T16:29:09.925Z,19.50
2019-04-30T16:34:15.690Z,19.30
2019-04-30T16:39:20.523Z,19.30
2019-04-30T16:44:25.354Z,19.10
2019-04-30T16:49:30.196Z,19.00
2019-04-30T16:54:35.123Z,18.70
2019-04-30T16:59:41.531Z,18.40
2019-04-30T17:04:57.196Z,18.10
2019-04-30T17:10:18.903Z,17.80
2019-04-30T17:15:25.611Z,17.70
2019-04-30T17:20:30.448Z,17.50
2019-04-30T17:25:35.280Z,17.50
2019-04-30T17:30:40.197Z,17.30
2019-04-30T17:35:45.050Z,17.10
2019-04-30T17:40:49.981Z,17.00
2019-04-30T17:45:54.874Z,16.80
2019-04-30T17:50:59.737Z,16.60
2019-04-30T17:56:04.962Z,16.30
2019-04-30T18:01:10.941Z,16.10
2019-04-30T18:06:15.868Z,15.80
2019-04-30T18:11:20.823Z,15.60
2019-04-30T18:16:25.764Z,15.40
2019-04-30T18:21:34.976Z,15.10
2019-04-30T18:26:47.446Z,15.00
2019-04-30T18:31:52.376Z,14.80
2019-04-30T18:36:59.214Z,14.50
2019-04-30T18:42:03.713Z,14.30
2019-04-30T18:47:09.019Z,14.10
2019-04-30T18:52:14.100Z,14.00
2019-04-30T18:57:19.031Z,13.70
2019-04-30T19:02:23.880Z,13.60
2019-04-30T19:07:30.857Z,13.40
2019-04-30T19:12:38.995Z,13.30
2019-04-30T19:17:54.430Z,13.10
2019-04-30T19:22:59.342Z,13.00
2019-04-30T19:28:12.133Z,12.90
2019-04-30T19:33:10.629Z,12.80
2019-04-30T19:38:15.480Z,12.60
2019-04-30T19:43:20.333Z,12.50
2019-04-30T19:48:26.607Z,12.40
2019-04-30T19:53:31.391Z,12.30
2019-04-30T19:58:50.117Z,12.20
2019-04-30T20:03:44.600Z,12.10
2019-04-30T20:08:49.544Z,12.00
2019-04-30T20:13:54.432Z,11.90
2019-04-30T20:18:59.292Z,11.70
2019-04-30T20:24:04.273Z,11.60
2019-04-30T20:29:11.754Z,11.50
2019-04-30T20:34:16.595Z,11.40
2019-04-30T20:39:23.494Z,11.30
2019-04-30T20:44:29.072Z,11.10
2019-04-30T20:49:34.172Z,10.90
2019-04-30T20:54:39.075Z,10.60
2019-04-30T20:59:44.030Z,10.50
2019-04-30T21:04:48.868Z,10.40
2019-04-30T21:09:53.732Z,10.20
2019-04-30T21:14:59.610Z,10.10
2019-04-30T21:20:09.660Z,10.00
2019-04-30T21:25:13.978Z,10.00
2019-04-30T21:30:18.824Z,10.00
2019-04-30T21:35:25.369Z,10.00
2019-04-30T21:40:30.283Z,10.10
2019-04-30T21:45:35.136Z,10.10
2019-04-30T21:50:40.232Z,10.20
2019-04-30T21:55:45.078Z,10.30
2019-04-30T22:00:54.585Z,10.30
2019-04-30T22:05:59.495Z,10.30
2019-04-30T22:11:04.407Z,10.40
2019-04-30T22:16:09.245Z,10.40
2019-04-30T22:21:14.086Z,10.40
2019-04-30T22:26:18.855Z,10.30
2019-04-30T22:31:23.690Z,10.30
2019-04-30T22:36:35.922Z,10.30
2019-04-30T22:41:40.750Z,10.30
2019-04-30T22:46:45.576Z,10.30
2019-04-30T22:51:50.621Z,10.20
2019-04-30T22:56:55.449Z,10.10
2019-04-30T23:02:05.065Z,10.10
2019-04-30T23:07:09.898Z,10.00
2019-04-30T23:12:14.717Z,10.00
2019-04-30T23:17:19.486Z,10.00
2019-04-30T23:22:24.259Z,10.00
2019-04-30T23:27:29.090Z,9.90
2019-04-30T23:32:33.943Z,9.90
2019-04-30T23:37:38.778Z,9.90
2019-04-30T23:42:43.532Z,9.90
2019-04-30T23:47:48.365Z,10.00
2019-04-30T23:52:53.261Z,10.00
2019-04-30T23:57:58.023Z,10.00
